Time;durP1;ratioP1;P1;durP2;ratioP2;P2;SDS_P1;SDS_P2;PMS_P1;PMS_P2;Temp;Humidity;BMP_temperature;BMP_pressure;BME280_temperature;BME280_humidity;BME280_pressure;Samples;Min_cycle;Max_cycle;Signal;HPM_P1;HPM_P2
2023/10/29 00:00:38;;;;;;;662.13;596.75;;;9.80;99.90;;;;;;5007059;28;20098;-75
2023/10/29 00:03:06;;;;;;;581.08;521.78;;;9.80;99.90;;;;;;5003364;28;20057;-76
2023/10/29 00:05:36;;;;;;;731.55;658.97;;;9.70;99.90;;;;;;5040077;28;20056;-75
2023/10/29 00:08:05;;;;;;;624.22;559.55;;;9.70;99.90;;;;;;5012417;28;20041;-76
2023/10/29 00:10:34;;;;;;;662.47;591.67;;;9.70;99.90;;;;;;5001351;28;20076;-75
2023/10/29 00:13:04;;;;;;;733.88;657.80;;;9.80;99.90;;;;;;5016959;28;20526;-76
2023/10/29 00:15:33;;;;;;;640.83;576.72;;;9.80;99.90;;;;;;5020921;28;20064;-76
2023/10/29 00:18:02;;;;;;;556.70;503.30;;;9.70;99.90;;;;;;5005495;28;20670;-76
2023/10/29 00:20:30;;;;;;;493.73;445.52;;;9.70;99.90;;;;;;5006114;28;20053;-74
2023/10/29 00:23:00;;;;;;;603.08;544.55;;;9.70;99.90;;;;;;5015185;28;20175;-75
2023/10/29 00:25:28;;;;;;;646.67;581.72;;;9.70;99.90;;;;;;4988982;28;20052;-75
2023/10/29 00:27:57;;;;;;;686.25;620.53;;;9.70;99.90;;;;;;5021782;28;20413;-75
2023/10/29 00:30:25;;;;;;;614.95;552.78;;;9.70;99.90;;;;;;5011749;28;20651;-75
2023/10/29 00:32:53;;;;;;;582.50;522.67;;;9.70;99.90;;;;;;4999977;28;20512;-76
2023/10/29 00:35:22;;;;;;;690.95;620.03;;;9.70;99.90;;;;;;5006804;28;20835;-75
2023/10/29 00:37:51;;;;;;;766.33;688.20;;;9.80;99.90;;;;;;5012211;28;20041;-75
2023/10/29 00:40:21;;;;;;;644.47;576.97;;;9.80;99.90;;;;;;4997575;28;20052;-77
2023/10/29 00:42:49;;;;;;;585.80;526.33;;;9.80;99.90;;;;;;5010063;28;20061;-77
2023/10/29 00:45:17;;;;;;;495.67;447.40;;;9.80;99.90;;;;;;4997380;28;20415;-75
2023/10/29 00:47:46;;;;;;;604.35;545.35;;;9.70;99.90;;;;;;5011716;28;20052;-75
2023/10/29 00:50:14;;;;;;;426.92;385.40;;;9.80;99.90;;;;;;4990407;28;20080;-75
2023/10/29 00:52:43;;;;;;;442.33;401.52;;;9.80;99.90;;;;;;5011689;28;20057;-76
2023/10/29 00:55:11;;;;;;;420.55;377.92;;;9.70;99.90;;;;;;5002670;28;20049;-76
2023/10/29 00:57:41;;;;;;;422.90;383.48;;;9.70;99.90;;;;;;5012284;28;20106;-75
2023/10/29 01:00:11;;;;;;;630.92;569.72;;;9.70;99.90;;;;;;4996077;28;20162;-76
2023/10/29 01:02:40;;;;;;;512.70;462.30;;;9.70;99.90;;;;;;5009395;28;20057;-75
2023/10/29 01:05:09;;;;;;;282.10;256.20;;;9.70;99.90;;;;;;4996356;28;20207;-76
2023/10/29 01:07:37;;;;;;;397.35;357.33;;;9.70;99.90;;;;;;4995899;28;20164;-76
2023/10/29 01:10:07;;;;;;;533.42;478.73;;;9.70;99.90;;;;;;5004539;28;20045;-76
2023/10/29 01:12:36;;;;;;;554.75;499.50;;;9.60;99.90;;;;;;5009744;28;20064;-78
2023/10/29 01:15:06;;;;;;;582.78;523.60;;;9.70;99.90;;;;;;5007709;28;20478;-75
2023/10/29 01:17:36;;;;;;;647.90;587.92;;;9.70;99.90;;;;;;4999081;28;20878;-78
2023/10/29 01:20:05;;;;;;;505.00;454.33;;;9.60;99.90;;;;;;5009113;28;20057;-76
2023/10/29 01:22:34;;;;;;;161.60;147.98;;;9.60;99.90;;;;;;5004932;28;20075;-76
2023/10/29 01:25:07;;;;;;;475.13;428.05;;;9.60;99.90;;;;;;5011350;28;20053;-75
2023/10/29 01:27:35;;;;;;;;;;;9.60;99.90;;;;;;5000830;28;20574;-76
2023/10/29 01:30:06;;;;;;;691.63;631.22;;;9.60;99.90;;;;;;5011047;28;19929;-75
2023/10/29 01:32:35;;;;;;;563.85;507.90;;;9.50;99.90;;;;;;5010095;28;20102;-75
2023/10/29 01:35:03;;;;;;;676.10;608.53;;;9.50;99.90;;;;;;5014950;28;21313;-75
2023/10/29 01:37:33;;;;;;;530.28;480.48;;;9.60;99.90;;;;;;5004536;28;20041;-76
2023/10/29 01:40:01;;;;;;;702.20;630.28;;;9.60;99.90;;;;;;5012387;28;20139;-76
2023/10/29 01:42:30;;;;;;;816.88;737.67;;;9.60;99.90;;;;;;5012536;28;20053;-76
2023/10/29 01:44:58;;;;;;;595.90;539.78;;;9.50;99.90;;;;;;5001400;28;20164;-74
2023/10/29 01:47:28;;;;;;;613.00;549.63;;;9.50;99.90;;;;;;5012368;28;20130;-76
2023/10/29 01:49:56;;;;;;;724.33;650.42;;;9.60;99.90;;;;;;5003147;28;20072;-75
2023/10/29 01:52:25;;;;;;;400.50;362.77;;;9.60;99.90;;;;;;5017099;28;20138;-75
2023/10/29 01:54:53;;;;;;;574.42;521.50;;;9.60;99.90;;;;;;5044786;28;20050;-75
2023/10/29 01:57:22;;;;;;;327.98;297.23;;;9.60;99.90;;;;;;5003522;28;20644;-76
2023/10/29 01:59:50;;;;;;;534.72;482.17;;;9.60;99.90;;;;;;5025716;28;20118;-75
2023/10/29 02:02:19;;;;;;;476.55;428.80;;;9.60;99.90;;;;;;5017465;28;22505;-76
2023/10/29 02:04:49;;;;;;;540.55;489.02;;;9.50;99.90;;;;;;5006342;28;20044;-76
2023/10/29 02:07:17;;;;;;;589.85;530.72;;;9.50;99.90;;;;;;5017577;28;20560;-75
2023/10/29 02:09:46;;;;;;;492.33;445.52;;;9.50;99.90;;;;;;5016542;28;22582;-75
2023/10/29 02:12:15;;;;;;;598.63;538.30;;;9.50;99.90;;;;;;5012398;28;20102;-77
2023/10/29 02:14:43;;;;;;;531.92;479.00;;;9.50;99.90;;;;;;5003883;28;22543;-75
2023/10/29 02:17:12;;;;;;;509.83;459.73;;;9.50;99.90;;;;;;5031250;28;20144;-76
2023/10/29 02:19:41;;;;;;;679.25;615.72;;;9.40;99.90;;;;;;5002047;28;20049;-76
2023/10/29 02:22:10;;;;;;;604.33;546.22;;;9.40;99.90;;;;;;5030804;28;22478;-76
2023/10/29 02:24:39;;;;;;;675.88;607.75;;;9.40;99.90;;;;;;5016953;28;20144;-76
2023/10/29 02:27:07;;;;;;;639.53;575.17;;;9.40;99.90;;;;;;5019153;28;20057;-75
2023/10/29 02:29:36;;;;;;;648.67;583.35;;;9.40;99.90;;;;;;5008283;28;20059;-75
2023/10/29 02:32:05;;;;;;;443.77;400.17;;;9.40;99.90;;;;;;5018427;28;20176;-75
2023/10/29 02:34:33;;;;;;;638.08;573.13;;;9.30;99.90;;;;;;5000714;28;20808;-77
2023/10/29 02:37:02;;;;;;;779.13;700.03;;;9.30;99.90;;;;;;5034654;28;20045;-75
2023/10/29 02:39:32;;;;;;;610.78;549.85;;;9.30;99.90;;;;;;5000845;28;20723;-76
2023/10/29 02:42:00;;;;;;;778.85;699.30;;;9.30;99.90;;;;;;5018194;28;20050;-75
2023/10/29 02:44:29;;;;;;;762.22;688.67;;;9.30;99.90;;;;;;5003237;28;20543;-76
2023/10/29 02:46:57;;;;;;;759.58;683.20;;;9.30;99.90;;;;;;5017726;28;20148;-76
2023/10/29 02:49:26;;;;;;;729.47;656.20;;;9.30;99.90;;;;;;5002651;28;20064;-75
2023/10/29 02:51:54;;;;;;;717.17;643.58;;;9.20;99.90;;;;;;5016197;28;20059;-74
2023/10/29 02:54:22;;;;;;;759.30;682.65;;;9.20;99.90;;;;;;5003665;28;20076;-76
2023/10/29 02:56:52;;;;;;;738.40;663.67;;;9.30;99.90;;;;;;5004586;28;20075;-76
2023/10/29 02:59:22;;;;;;;766.90;686.65;;;9.20;99.90;;;;;;5019669;28;21135;-75
2023/10/29 03:01:50;;;;;;;806.58;725.40;;;9.20;99.90;;;;;;5018445;28;20076;-75
2023/10/29 03:04:19;;;;;;;793.78;715.10;;;9.10;99.90;;;;;;5030509;28;20058;-77
2023/10/29 03:06:47;;;;;;;815.28;735.30;;;9.20;99.90;;;;;;5014140;28;20061;-76
2023/10/29 03:09:16;;;;;;;813.33;735.53;;;9.10;99.90;;;;;;5002286;28;20048;-76
2023/10/29 03:11:44;;;;;;;746.33;672.38;;;9.10;99.90;;;;;;5003435;28;20165;-77
2023/10/29 03:14:14;;;;;;;772.95;698.80;;;9.10;99.90;;;;;;5018872;28;20148;-76
2023/10/29 03:16:44;;;;;;;770.25;693.08;;;9.10;99.90;;;;;;5001118;28;20045;-77
2023/10/29 03:19:13;;;;;;;721.25;650.58;;;9.10;99.90;;;;;;5021168;28;20040;-76
2023/10/29 03:21:41;;;;;;;823.92;743.80;;;9.20;99.90;;;;;;5016838;28;20684;-75
2023/10/29 03:24:10;;;;;;;801.85;723.42;;;9.10;99.90;;;;;;5040982;28;20044;-75
2023/10/29 03:26:38;;;;;;;851.05;767.40;;;9.10;99.90;;;;;;5003623;28;22745;-76
2023/10/29 03:29:07;;;;;;;792.78;709.70;;;9.10;99.90;;;;;;5013679;28;20053;-77
2023/10/29 03:31:38;;;;;;;782.22;704.42;;;9.10;99.90;;;;;;5018838;28;20061;-76
2023/10/29 03:34:07;;;;;;;703.95;635.70;;;9.10;99.90;;;;;;5018128;28;20285;-75
2023/10/29 03:36:36;;;;;;;765.38;693.25;;;9.10;99.90;;;;;;5042262;28;20140;-77
2023/10/29 03:39:05;;;;;;;793.28;711.53;;;9.10;99.90;;;;;;5016583;28;22590;-76
2023/10/29 03:41:33;;;;;;;828.00;743.45;;;9.10;99.90;;;;;;5003590;28;20114;-76
2023/10/29 03:44:02;;;;;;;798.28;718.20;;;9.00;99.90;;;;;;5019349;28;20056;-76
2023/10/29 03:46:30;;;;;;;783.88;708.17;;;9.10;99.90;;;;;;5014000;28;22064;-76
2023/10/29 03:49:00;;;;;;;790.53;710.78;;;9.00;99.90;;;;;;5014726;28;20905;-77
2023/10/29 03:51:29;;;;;;;715.85;646.22;;;9.00;99.90;;;;;;5018926;28;20065;-75
2023/10/29 03:53:57;;;;;;;835.55;750.33;;;8.90;99.90;;;;;;5030208;28;20071;-75
2023/10/29 03:56:26;;;;;;;779.08;701.88;;;8.90;99.90;;;;;;4997751;28;20053;-77
2023/10/29 03:58:54;;;;;;;780.03;706.92;;;9.00;99.90;;;;;;5018190;28;20515;-76
2023/10/29 04:01:26;;;;;;;786.63;713.55;;;8.90;99.90;;;;;;4994823;28;20052;-76
2023/10/29 04:03:55;;;;;;;820.03;739.30;;;9.00;99.90;;;;;;5001720;28;20046;-75
2023/10/29 04:06:25;;;;;;;770.53;697.67;;;8.90;99.90;;;;;;5001495;28;20091;-76
2023/10/29 04:08:54;;;;;;;755.42;683.70;;;8.90;99.90;;;;;;5001348;28;20049;-75
2023/10/29 04:11:23;;;;;;;761.70;689.00;;;8.90;99.90;;;;;;5013509;28;20068;-76
2023/10/29 04:13:51;;;;;;;770.95;696.88;;;8.90;99.90;;;;;;5027857;28;20048;-75
2023/10/29 04:16:20;;;;;;;739.78;669.85;;;8.90;99.90;;;;;;5018327;28;20059;-76
2023/10/29 04:18:48;;;;;;;778.85;703.72;;;8.90;99.90;;;;;;5002130;28;21103;-75
2023/10/29 04:21:18;;;;;;;741.67;672.13;;;8.90;99.90;;;;;;5018291;28;21255;-75
2023/10/29 04:23:47;;;;;;;756.53;682.22;;;8.80;99.90;;;;;;5013961;28;20057;-76
2023/10/29 04:26:16;;;;;;;811.15;734.90;;;8.80;99.90;;;;;;5018340;28;22482;-76
2023/10/29 04:28:45;;;;;;;759.97;687.80;;;8.80;99.90;;;;;;5002080;28;20080;-75
2023/10/29 04:31:13;;;;;;;746.15;676.17;;;8.80;99.90;;;;;;5001251;28;20216;-76
2023/10/29 04:33:45;;;;;;;766.42;695.28;;;8.90;99.90;;;;;;5017825;28;20061;-77
2023/10/29 04:36:19;;;;;;;770.63;699.97;;;8.80;99.90;;;;;;5001473;28;20186;-75
2023/10/29 04:38:50;;;;;;;772.55;704.17;;;8.80;99.90;;;;;;5020040;28;20041;-76
2023/10/29 04:41:18;;;;;;;775.05;705.92;;;8.80;99.90;;;;;;5001747;28;20175;-76
2023/10/29 04:43:47;;;;;;;768.08;698.72;;;8.80;99.90;;;;;;5003559;28;20257;-77
2023/10/29 04:46:16;;;;;;;798.47;724.60;;;8.80;99.90;;;;;;5017642;28;22503;-76
2023/10/29 04:48:45;;;;;;;768.40;697.67;;;8.80;99.90;;;;;;5016659;28;20186;-75
2023/10/29 04:51:13;;;;;;;750.15;678.55;;;8.80;99.90;;;;;;5000881;28;20075;-77
2023/10/29 04:53:41;;;;;;;793.08;719.88;;;8.80;99.90;;;;;;5001242;28;20143;-76
2023/10/29 04:56:11;;;;;;;812.20;736.58;;;8.70;99.90;;;;;;5032646;28;20053;-76
2023/10/29 04:58:40;;;;;;;756.90;685.38;;;8.70;99.90;;;;;;5019176;28;20136;-76
2023/10/29 05:01:08;;;;;;;739.10;671.55;;;8.70;99.90;;;;;;5011087;28;20049;-76
2023/10/29 05:03:37;;;;;;;773.78;701.75;;;8.70;99.90;;;;;;5001656;28;20053;-76
2023/10/29 05:06:06;;;;;;;761.03;690.90;;;8.60;99.90;;;;;;5000011;28;20049;-77
2023/10/29 05:08:34;;;;;;;769.58;700.92;;;8.60;99.90;;;;;;5000484;28;20049;-76
2023/10/29 05:11:03;;;;;;;777.13;703.45;;;8.60;99.90;;;;;;5001858;28;22566;-77
2023/10/29 05:13:33;;;;;;;772.10;702.20;;;8.60;99.90;;;;;;5021934;28;20061;-76
2023/10/29 05:16:01;;;;;;;738.47;674.30;;;8.60;99.90;;;;;;5004013;28;20049;-76
2023/10/29 05:18:29;;;;;;;745.78;675.97;;;8.60;99.90;;;;;;5012300;28;20048;-74
2023/10/29 05:20:58;;;;;;;759.50;690.30;;;8.60;99.90;;;;;;5012810;28;20901;-75
2023/10/29 05:23:30;;;;;;;753.30;687.10;;;8.50;99.90;;;;;;5013199;28;20753;-76
2023/10/29 05:25:58;;;;;;;754.20;691.00;;;8.50;99.90;;;;;;5003834;28;20242;-75
2023/10/29 05:28:28;;;;;;;750.72;683.30;;;8.50;99.90;;;;;;5003656;28;20133;-76
2023/10/29 05:30:57;;;;;;;749.47;685.58;;;8.50;99.90;;;;;;5004907;28;21026;-76
2023/10/29 05:33:26;;;;;;;766.60;702.40;;;8.50;99.90;;;;;;5014561;28;20215;-76
2023/10/29 05:35:57;;;;;;;743.42;675.35;;;8.40;99.90;;;;;;5019033;28;20170;-76
2023/10/29 05:38:26;;;;;;;741.20;675.63;;;8.50;99.90;;;;;;5004852;28;20428;-76
2023/10/29 05:40:54;;;;;;;726.53;666.47;;;8.50;99.90;;;;;;5005422;28;20071;-75
2023/10/29 05:43:23;;;;;;;728.00;666.17;;;8.40;99.90;;;;;;5018405;28;20180;-77
2023/10/29 05:45:51;;;;;;;743.25;679.83;;;8.50;99.90;;;;;;5004299;28;20094;-76
2023/10/29 05:48:21;;;;;;;731.47;672.60;;;8.50;99.90;;;;;;5012151;28;20049;-75
2023/10/29 05:50:49;;;;;;;734.28;673.95;;;8.50;99.90;;;;;;5016248;28;20057;-76
2023/10/29 05:53:18;;;;;;;759.83;690.35;;;8.50;99.90;;;;;;5005292;28;20697;-76
2023/10/29 05:55:46;;;;;;;745.63;685.15;;;8.50;99.90;;;;;;5014230;28;20099;-75
2023/10/29 05:58:15;;;;;;;731.55;670.53;;;8.60;99.90;;;;;;5003727;28;20572;-76
2023/10/29 06:00:43;;;;;;;712.85;657.50;;;8.50;99.90;;;;;;5018890;28;20056;-75
2023/10/29 06:03:11;;;;;;;740.60;680.85;;;8.60;99.90;;;;;;5021795;28;20045;-75
2023/10/29 06:05:41;;;;;;;681.72;628.50;;;8.60;99.90;;;;;;5033013;28;20048;-76
2023/10/29 06:08:10;;;;;;;706.13;648.20;;;8.70;99.90;;;;;;5004543;28;20053;-75
2023/10/29 06:10:38;;;;;;;733.75;674.63;;;8.70;99.90;;;;;;5035233;28;20048;-77
2023/10/29 06:13:07;;;;;;;690.53;637.92;;;8.80;99.90;;;;;;5002843;28;20060;-75
2023/10/29 06:15:35;;;;;;;693.67;636.33;;;8.80;99.90;;;;;;5013752;28;20642;-74
2023/10/29 06:18:06;;;;;;;772.13;705.72;;;8.80;99.90;;;;;;5014841;28;20192;-75
2023/10/29 06:20:35;;;;;;;520.17;478.70;;;8.80;99.90;;;;;;5022672;28;20767;-75
2023/10/29 06:23:04;;;;;;;555.65;511.35;;;8.90;99.90;;;;;;5016775;28;20053;-75
2023/10/29 06:25:33;;;;;;;555.72;511.83;;;8.90;99.90;;;;;;5027294;28;20064;-75
2023/10/29 06:28:01;;;;;;;535.53;493.27;;;8.90;99.90;;;;;;5002536;28;20045;-76
2023/10/29 06:30:30;;;;;;;569.38;519.95;;;9.00;99.90;;;;;;5028611;28;20053;-75
2023/10/29 06:33:00;;;;;;;556.60;513.35;;;9.00;99.90;;;;;;5015473;28;22529;-75
2023/10/29 06:35:29;;;;;;;522.40;482.58;;;9.10;99.90;;;;;;5010841;28;20060;-75
2023/10/29 06:37:58;;;;;;;575.83;528.08;;;9.20;99.90;;;;;;5000759;28;20076;-75
2023/10/29 06:40:28;;;;;;;618.17;564.00;;;9.20;99.90;;;;;;5032442;28;20085;-75
2023/10/29 06:42:56;;;;;;;849.33;763.42;;;9.30;99.90;;;;;;5013035;28;20061;-75
2023/10/29 06:45:25;;;;;;;832.35;747.40;;;9.30;99.90;;;;;;5017057;28;20049;-75
2023/10/29 06:47:53;;;;;;;810.63;733.40;;;9.40;99.90;;;;;;5000508;28;20056;-76
2023/10/29 06:50:22;;;;;;;826.00;746.42;;;9.50;99.90;;;;;;5000120;28;20044;-76
2023/10/29 06:52:50;;;;;;;777.30;710.63;;;9.50;99.90;;;;;;5000731;28;20061;-74
2023/10/29 06:55:20;;;;;;;835.08;753.75;;;9.60;99.90;;;;;;5014267;28;20117;-75
2023/10/29 06:57:50;;;;;;;733.67;659.72;;;9.70;99.90;;;;;;5000844;28;20045;-75
2023/10/29 07:00:18;;;;;;;759.63;677.75;;;9.80;99.90;;;;;;5018158;28;20049;-74
2023/10/29 07:02:47;;;;;;;772.92;691.15;;;9.80;99.90;;;;;;4999483;28;20115;-75
2023/10/29 07:05:15;;;;;;;751.58;668.47;;;9.90;99.90;;;;;;5016558;28;20223;-75
2023/10/29 07:07:44;;;;;;;801.92;722.67;;;10.00;99.90;;;;;;4991952;28;20049;-73
2023/10/29 07:10:13;;;;;;;603.00;542.47;;;10.10;99.90;;;;;;5001153;28;20170;-74
2023/10/29 07:12:41;;;;;;;373.58;337.30;;;10.20;99.90;;;;;;5033106;28;20060;-74
2023/10/29 07:15:12;;;;;;;422.23;381.77;;;10.30;99.90;;;;;;5001306;28;22518;-77
2023/10/29 07:17:40;;;;;;;408.58;370.10;;;10.40;99.90;;;;;;5007038;28;20048;-75
2023/10/29 07:20:11;;;;;;;502.67;451.27;;;10.50;99.90;;;;;;5004821;28;20049;-76
2023/10/29 07:22:39;;;;;;;406.70;367.17;;;10.60;99.90;;;;;;5001523;28;20041;-75
2023/10/29 07:25:08;;;;;;;656.95;588.03;;;10.70;99.90;;;;;;5014352;28;20053;-74
2023/10/29 07:27:37;;;;;;;430.95;383.63;;;10.80;99.90;;;;;;5000341;28;20258;-74
2023/10/29 07:30:07;;;;;;;443.63;401.38;;;10.90;99.90;;;;;;5002469;28;22503;-78
2023/10/29 07:32:37;;;;;;;114.28;103.80;;;11.00;99.90;;;;;;4999578;28;20496;-74
2023/10/29 07:35:06;;;;;;;107.72;97.03;;;11.10;99.90;;;;;;4998122;28;20140;-76
2023/10/29 07:37:35;;;;;;;189.18;170.85;;;11.20;99.90;;;;;;5017902;28;20060;-77
2023/10/29 07:40:06;;;;;;;54.55;45.05;;;11.30;99.90;;;;;;4998300;28;21097;-80
2023/10/29 07:42:34;;;;;;;380.83;339.45;;;11.40;99.90;;;;;;5003239;28;20968;-77
2023/10/29 07:45:03;;;;;;;431.00;385.90;;;11.40;99.90;;;;;;5024413;28;20050;-77
2023/10/29 07:47:33;;;;;;;59.85;52.03;;;11.50;99.90;;;;;;5033490;28;20084;-78
2023/10/29 07:50:03;;;;;;;79.32;65.53;;;11.60;99.90;;;;;;5000966;28;22640;-77
2023/10/29 07:52:36;;;;;;;142.43;127.47;;;11.60;99.90;;;;;;5008915;28;22593;-80
2023/10/29 07:55:06;;;;;;;55.45;49.47;;;11.70;99.90;;;;;;5017632;28;20052;-81
2023/10/29 07:57:34;;;;;;;65.28;58.92;;;11.80;99.90;;;;;;5012521;28;20104;-81
2023/10/29 08:00:04;;;;;;;49.50;39.65;;;11.90;99.90;;;;;;5000865;28;20049;-83
2023/10/29 08:02:39;;;;;;;30.85;25.75;;;12.00;99.90;;;;;;5001035;28;20059;-81
2023/10/29 08:05:10;;;;;;;26.73;20.42;;;12.00;99.90;;;;;;5021563;28;20056;-84
2023/10/29 08:07:39;;;;;;;30.33;23.02;;;12.00;99.90;;;;;;5014131;28;20045;-83
2023/10/29 08:10:08;;;;;;;42.03;35.72;;;12.20;99.90;;;;;;5019385;28;20173;-81
2023/10/29 08:12:36;;;;;;;31.17;18.40;;;12.30;99.90;;;;;;5003339;28;20060;-82
2023/10/29 08:15:06;;;;;;;27.42;20.25;;;12.40;99.90;;;;;;5022708;28;20045;-80
2023/10/29 08:17:34;;;;;;;24.40;16.17;;;12.50;99.90;;;;;;5019485;28;20176;-80
2023/10/29 08:20:03;;;;;;;27.23;20.67;;;12.50;99.90;;;;;;5016333;28;20041;-83
2023/10/29 08:22:33;;;;;;;22.70;20.15;;;12.50;99.90;;;;;;5017618;28;20112;-83
2023/10/29 08:25:02;;;;;;;29.50;21.25;;;12.60;99.90;;;;;;5014056;28;20052;-82
2023/10/29 08:27:31;;;;;;;23.23;16.10;;;12.70;99.90;;;;;;5001804;28;20071;-84
2023/10/29 08:29:59;;;;;;;29.10;15.13;;;12.70;99.90;;;;;;5020097;28;20815;-81
2023/10/29 08:32:32;;;;;;;16.92;12.55;;;12.90;99.90;;;;;;5016927;28;22673;-82
2023/10/29 08:35:01;;;;;;;30.50;22.92;;;13.10;99.90;;;;;;5004993;28;20050;-85
2023/10/29 08:37:30;;;;;;;13.93;8.38;;;13.20;99.90;;;;;;5001546;28;22571;-81
2023/10/29 08:40:00;;;;;;;25.77;16.92;;;13.40;99.90;;;;;;5014784;28;20041;-83
2023/10/29 08:42:30;;;;;;;37.13;21.75;;;13.40;99.90;;;;;;5019838;28;20053;-82
2023/10/29 08:44:58;;;;;;;15.40;13.38;;;13.60;99.90;;;;;;5001688;28;20126;-82
2023/10/29 08:47:27;;;;;;;15.73;12.23;;;13.70;99.90;;;;;;5020088;28;20049;-83
2023/10/29 08:49:56;;;;;;;24.50;14.98;;;13.70;99.90;;;;;;5021644;28;20061;-84
2023/10/29 08:52:25;;;;;;;13.13;9.38;;;13.80;99.90;;;;;;5026851;28;20175;-84
2023/10/29 08:54:53;;;;;;;17.77;9.90;;;14.00;99.90;;;;;;5007430;28;20941;-82
2023/10/29 08:57:23;;;;;;;21.60;14.93;;;14.00;99.90;;;;;;5004493;28;20167;-83
2023/10/29 08:59:52;;;;;;;19.95;13.23;;;14.10;99.90;;;;;;5015396;28;20083;-79
2023/10/29 09:02:20;;;;;;;15.30;8.98;;;14.30;99.90;;;;;;5001416;28;20048;-81
2023/10/29 09:04:52;;;;;;;13.68;11.80;;;14.40;99.90;;;;;;5020554;28;20113;-83
2023/10/29 09:07:21;;;;;;;17.58;12.43;;;14.50;99.90;;;;;;5017109;28;21895;-81
2023/10/29 09:09:50;;;;;;;11.75;8.60;;;14.60;99.90;;;;;;5013946;28;20049;-80
2023/10/29 09:12:18;;;;;;;9.80;5.68;;;14.70;99.90;;;;;;5024216;28;20089;-83
2023/10/29 09:14:49;;;;;;;8.32;6.15;;;14.80;99.90;;;;;;5003751;28;20061;-84
2023/10/29 09:17:18;;;;;;;14.82;9.77;;;14.80;99.90;;;;;;5003126;28;20542;-80
2023/10/29 09:19:46;;;;;;;26.08;18.90;;;14.90;99.90;;;;;;5006494;28;20155;-79
2023/10/29 09:22:15;;;;;;;24.23;19.98;;;15.00;99.90;;;;;;4989477;28;20777;-83
2023/10/29 09:24:43;;;;;;;17.02;12.30;;;15.10;99.90;;;;;;5027186;28;20054;-80
2023/10/29 09:27:12;;;;;;;7.72;4.13;;;15.30;99.90;;;;;;5002394;28;20342;-80
2023/10/29 09:29:41;;;;;;;45.15;40.25;;;15.50;99.90;;;;;;5009181;28;20049;-80
2023/10/29 09:32:13;;;;;;;11.45;9.38;;;15.70;99.90;;;;;;5002326;28;20677;-80
2023/10/29 09:34:43;;;;;;;13.43;12.13;;;15.70;99.90;;;;;;4994920;28;20041;-81
2023/10/29 09:37:11;;;;;;;3.15;1.00;;;15.80;99.90;;;;;;5008410;28;20080;-78
2023/10/29 09:39:40;;;;;;;9.48;6.15;;;16.00;99.90;;;;;;5008989;28;20102;-80
2023/10/29 09:42:11;;;;;;;37.55;33.63;;;16.10;99.90;;;;;;5008362;28;20065;-82
2023/10/29 09:44:41;;;;;;;15.40;11.90;;;16.00;99.90;;;;;;5006697;28;20755;-84
2023/10/29 09:47:15;;;;;;;19.08;12.57;;;16.10;99.90;;;;;;5011562;28;22371;-81
2023/10/29 09:49:44;;;;;;;5.30;3.63;;;16.20;99.90;;;;;;4995507;28;20530;-78
2023/10/29 09:52:14;;;;;;;22.08;19.70;;;16.30;99.90;;;;;;4996245;28;20053;-80
2023/10/29 09:54:45;;;;;;;7.25;6.43;;;16.30;99.90;;;;;;4993924;28;20049;-82
2023/10/29 09:57:14;;;;;;;29.75;27.20;;;16.20;99.90;;;;;;5002647;28;20052;-80
2023/10/29 09:59:43;;;;;;;7.93;4.28;;;16.30;99.90;;;;;;4992562;28;20057;-81
2023/10/29 10:02:14;;;;;;;10.02;7.25;;;16.40;99.90;;;;;;5012792;28;20179;-80
2023/10/29 10:04:48;;;;;;;6.65;5.28;;;16.60;99.90;;;;;;5001901;28;20053;-84
2023/10/29 10:07:17;;;;;;;7.00;6.22;;;16.80;99.90;;;;;;4975121;28;20064;-82
2023/10/29 10:09:53;;;;;;;6.93;5.00;;;16.70;99.90;;;;;;4998943;28;20049;-83
2023/10/29 10:12:21;;;;;;;14.43;8.10;;;16.80;99.90;;;;;;5014618;28;20080;-83
2023/10/29 10:14:52;;;;;;;7.32;6.60;;;16.80;99.90;;;;;;5014566;28;20579;-83
2023/10/29 10:17:22;;;;;;;9.13;6.60;;;16.80;99.90;;;;;;4999295;28;20135;-80
2023/10/29 10:20:07;;;;;;;204.25;183.07;;;16.90;99.90;;;;;;5016834;28;20060;-80
2023/10/29 10:22:36;;;;;;;10.65;9.55;;;16.80;99.90;;;;;;5007125;28;20135;-86
2023/10/29 10:25:06;;;;;;;10.52;6.13;;;16.90;99.90;;;;;;5019400;28;20041;-84
2023/10/29 10:27:48;;;;;;;9.30;7.57;;;17.10;99.90;;;;;;5026384;28;20059;-84
2023/10/29 10:30:28;;;;;;;2.22;0.40;;;17.20;99.90;;;;;;5016491;28;20049;-83
2023/10/29 10:33:10;;;;;;;2.85;1.05;;;17.30;99.90;;;;;;5025885;28;20094;-83
2023/10/29 10:35:40;;;;;;;3.72;0.70;;;17.30;99.90;;;;;;5021192;28;20064;-79
2023/10/29 10:38:09;;;;;;;3.55;0.30;;;17.40;99.90;;;;;;5020535;28;20827;-83
2023/10/29 10:40:38;;;;;;;3.60;1.20;;;17.50;99.90;;;;;;5018816;28;20048;-83
2023/10/29 10:43:08;;;;;;;3.63;0.30;;;17.60;99.90;;;;;;5011579;28;20260;-81
2023/10/29 10:45:37;;;;;;;2.17;0.30;;;17.60;99.90;;;;;;4993413;28;20049;-80
2023/10/29 10:48:08;;;;;;;2.45;0.20;;;17.60;99.90;;;;;;5022577;28;20052;-85
2023/10/29 10:50:38;;;;;;;1.95;0.20;;;17.70;99.90;;;;;;5023043;28;20539;-78
2023/10/29 10:53:07;;;;;;;2.20;0.22;;;17.80;99.90;;;;;;5013896;28;20927;-83
2023/10/29 10:55:39;;;;;;;2.63;0.20;;;17.80;99.90;;;;;;5020347;28;22254;-80
2023/10/29 10:58:29;;;;;;;3.35;0.28;;;17.80;99.90;;;;;;5032589;28;20106;-80
2023/10/29 11:00:59;;;;;;;1.42;0.20;;;17.80;99.90;;;;;;5014456;28;20056;-78
2023/10/29 11:03:32;;;;;;;1.77;0.17;;;17.90;99.90;;;;;;5016600;28;20159;-82
2023/10/29 11:06:02;;;;;;;0.82;0.20;;;18.00;99.90;;;;;;5032359;28;20045;-80
2023/10/29 11:08:31;;;;;;;1.35;0.25;;;18.00;99.90;;;;;;5022350;28;20520;-83
2023/10/29 11:11:00;;;;;;;3.03;0.20;;;18.10;99.90;;;;;;5006955;28;20088;-81
2023/10/29 11:13:29;;;;;;;2.03;0.20;;;18.00;99.90;;;;;;4999623;28;22560;-81
2023/10/29 11:15:57;;;;;;;3.92;0.28;;;18.10;99.90;;;;;;5032042;28;20049;-80
2023/10/29 11:18:32;;;;;;;1.05;0.20;;;18.00;99.90;;;;;;5013290;28;20099;-83
2023/10/29 11:21:03;;;;;;;1.30;0.20;;;17.90;99.90;;;;;;4998729;28;20404;-79
2023/10/29 11:23:34;;;;;;;2.90;0.20;;;18.10;99.90;;;;;;5014741;28;20804;-82
2023/10/29 11:26:20;;;;;;;5.78;0.85;;;18.20;99.90;;;;;;5009766;28;20048;-81
2023/10/29 11:28:51;;;;;;;2.17;0.22;;;18.20;99.90;;;;;;5015803;28;20744;-80
2023/10/29 11:31:21;;;;;;;1.83;0.20;;;18.30;99.90;;;;;;5015776;28;20068;-80
2023/10/29 11:34:41;;;;;;;1.55;0.17;;;18.30;99.90;;;;;;5005883;28;20427;-79
2023/10/29 11:37:35;;;;;;;2.35;0.40;;;18.40;99.90;;;;;;4971135;28;20049;-82
2023/10/29 11:40:35;;;;;;;3.33;0.20;;;18.50;99.90;;;;;;5010204;28;20689;-83
2023/10/29 11:43:25;;;;;;;1.00;0.28;;;18.50;99.90;;;;;;5015880;28;20061;-81
2023/10/29 11:46:01;;;;;;;2.67;0.40;;;18.50;99.90;;;;;;5016358;28;20083;-77
2023/10/29 11:48:31;;;;;;;3.08;0.10;;;18.60;99.90;;;;;;5010508;28;20060;-78
2023/10/29 11:51:21;;;;;;;0.70;0.10;;;18.60;99.90;;;;;;5013492;28;20688;-80
2023/10/29 11:53:50;;;;;;;1.33;0.15;;;18.50;99.90;;;;;;5012743;28;20105;-79
2023/10/29 11:56:19;;;;;;;2.38;0.22;;;18.60;99.90;;;;;;4997544;28;20148;-80
2023/10/29 11:59:06;;;;;;;1.95;0.22;;;18.70;99.90;;;;;;5031917;28;20448;-81
2023/10/29 12:01:36;;;;;;;2.08;0.10;;;18.80;99.90;;;;;;5018236;28;20057;-81
2023/10/29 12:04:08;;;;;;;3.08;0.20;;;18.70;99.90;;;;;;4998645;28;20049;-77
2023/10/29 12:06:44;;;;;;;2.97;0.10;;;18.50;99.90;;;;;;5014450;28;20052;-83
2023/10/29 12:09:19;;;;;;;2.13;0.10;;;18.40;99.90;;;;;;5000420;28;20044;-83
2023/10/29 12:11:52;;;;;;;3.05;0.30;;;18.50;99.90;;;;;;5020781;28;20057;-80
2023/10/29 12:14:38;;;;;;;2.78;0.30;;;18.50;99.90;;;;;;5013347;28;20060;-81
2023/10/29 12:17:07;;;;;;;3.53;0.30;;;18.60;99.90;;;;;;5020711;28;20084;-82
2023/10/29 12:19:36;;;;;;;2.53;0.20;;;18.60;99.90;;;;;;4998381;28;20287;-83
2023/10/29 12:22:15;;;;;;;3.08;0.20;;;18.60;99.90;;;;;;5004513;28;20130;-85
2023/10/29 12:24:45;;;;;;;0.88;0.17;;;18.60;99.90;;;;;;5003257;28;20075;-83
2023/10/29 12:27:15;;;;;;;3.30;0.30;;;18.60;99.90;;;;;;5017199;28;20063;-89
2023/10/29 12:29:43;;;;;;;0.88;0.17;;;18.60;99.90;;;;;;5019369;28;20891;-81
2023/10/29 12:32:19;;;;;;;1.70;0.10;;;18.50;99.90;;;;;;4996143;28;20772;-82
2023/10/29 12:34:49;;;;;;;1.48;0.13;;;18.60;99.70;;;;;;5002200;28;20123;-81
2023/10/29 12:37:27;;;;;;;0.85;0.10;;;18.60;98.90;;;;;;4991403;28;20064;-86
2023/10/29 12:39:59;;;;;;;1.38;0.20;;;18.70;97.70;;;;;;5006443;28;20127;-87